sensor_id;sensor_type;location;lat;lon;timestamp;pressure;altitude;pressure_sealevel;temperature;humidity
58775;BME280;44545;47.480;19.024;2023-02-03T03:43:55;100893.75;;;-1.11;93.22
58775;BME280;44545;47.480;19.024;2023-02-03T03:47:11;100890.78;;;-0.75;87.67
58775;BME280;44545;47.480;19.024;2023-02-03T03:50:18;100889.56;;;-0.54;86.56
58775;BME280;44545;47.480;19.024;2023-02-03T03:53:26;100892.72;;;-0.56;84.51
58775;BME280;44545;47.480;19.024;2023-02-03T03:56:38;100899.22;;;-0.51;84.97
58775;BME280;44545;47.480;19.024;2023-02-03T03:59:46;100885.03;;;-0.56;85.34
58775;BME280;44545;47.480;19.024;2023-02-03T04:02:50;100885.63;;;-0.59;84.59
58775;BME280;44545;47.480;19.024;2023-02-03T04:05:53;100881.78;;;-0.47;84.58
58775;BME280;44545;47.480;19.024;2023-02-03T04:08:55;100886.56;;;-0.34;83.29
58775;BME280;44545;47.480;19.024;2023-02-03T04:11:58;100886.19;;;-0.21;82.75
58775;BME280;44545;47.480;19.024;2023-02-03T04:15:03;100870.75;;;-0.30;82.01
58775;BME280;44545;47.480;19.024;2023-02-03T04:18:08;100873.00;;;-0.33;82.57
58775;BME280;44545;47.480;19.024;2023-02-03T04:21:12;100873.47;;;-0.28;83.21
58775;BME280;44545;47.480;19.024;2023-02-03T04:24:15;100880.53;;;-0.34;83.67
58775;BME280;44545;47.480;19.024;2023-02-03T04:27:17;100862.88;;;-0.40;84.35
58775;BME280;44545;47.480;19.024;2023-02-03T04:30:20;100859.84;;;-0.36;84.10
58775;BME280;44545;47.480;19.024;2023-02-03T04:33:22;100856.78;;;-0.25;82.61
58775;BME280;44545;47.480;19.024;2023-02-03T04:36:24;100860.94;;;-0.09;81.11
58775;BME280;44545;47.480;19.024;2023-02-03T04:39:26;100857.19;;;-0.04;80.71
58775;BME280;44545;47.480;19.024;2023-02-03T04:42:29;100864.56;;;-0.07;79.93
58775;BME280;44545;47.480;19.024;2023-02-03T04:45:31;100876.34;;;-0.01;79.44
58775;BME280;44545;47.480;19.024;2023-02-03T04:48:33;100875.13;;;-0.04;80.51
58775;BME280;44545;47.480;19.024;2023-02-03T04:51:36;100861.31;;;0.03;78.58
58775;BME280;44545;47.480;19.024;2023-02-03T04:54:38;100870.87;;;0.21;78.45
58775;BME280;44545;47.480;19.024;2023-02-03T04:57:40;100857.75;;;0.27;78.94
58775;BME280;44545;47.480;19.024;2023-02-03T05:00:43;100864.19;;;0.14;80.07
58775;BME280;44545;47.480;19.024;2023-02-03T05:03:45;100861.03;;;0.17;78.51
58775;BME280;44545;47.480;19.024;2023-02-03T05:06:47;100852.41;;;0.50;74.09
58775;BME280;44545;47.480;19.024;2023-02-03T05:09:50;100848.94;;;0.58;72.37
58775;BME280;44545;47.480;19.024;2023-02-03T05:12:52;100853.53;;;0.69;71.58
58775;BME280;44545;47.480;19.024;2023-02-03T05:15:54;100854.00;;;0.74;74.15
58775;BME280;44545;47.480;19.024;2023-02-03T05:18:57;100867.56;;;0.64;74.79
58775;BME280;44545;47.480;19.024;2023-02-03T05:21:59;100853.47;;;0.60;72.12
58775;BME280;44545;47.480;19.024;2023-02-03T05:25:02;100855.44;;;0.63;73.04
58775;BME280;44545;47.480;19.024;2023-02-03T05:28:05;100863.44;;;0.57;73.47
58775;BME280;44545;47.480;19.024;2023-02-03T05:31:07;100872.94;;;0.50;73.60
58775;BME280;44545;47.480;19.024;2023-02-03T05:34:09;100881.09;;;0.54;72.92
58775;BME280;44545;47.480;19.024;2023-02-03T05:37:12;100877.16;;;0.49;70.19
58775;BME280;44545;47.480;19.024;2023-02-03T05:40:14;100871.44;;;0.52;70.29
58775;BME280;44545;47.480;19.024;2023-02-03T05:43:36;100876.44;;;0.68;68.69
58775;BME280;44545;47.480;19.024;2023-02-03T05:46:38;100873.00;;;0.76;69.62
58775;BME280;44545;47.480;19.024;2023-02-03T05:49:41;100880.97;;;0.70;68.74
58775;BME280;44545;47.480;19.024;2023-02-03T05:52:43;100869.12;;;0.97;65.76
58775;BME280;44545;47.480;19.024;2023-02-03T05:55:45;100868.53;;;0.99;66.13
58775;BME280;44545;47.480;19.024;2023-02-03T05:58:47;100872.16;;;1.01;65.05
58775;BME280;44545;47.480;19.024;2023-02-03T06:01:52;100882.09;;;0.98;65.19
58775;BME280;44545;47.480;19.024;2023-02-03T06:04:54;100872.75;;;1.07;65.08
58775;BME280;44545;47.480;19.024;2023-02-03T06:07:57;100858.41;;;1.10;65.75
58775;BME280;44545;47.480;19.024;2023-02-03T06:11:00;100850.56;;;1.17;65.09
58775;BME280;44545;47.480;19.024;2023-02-03T06:14:02;100856.44;;;1.24;64.49
58775;BME280;44545;47.480;19.024;2023-02-03T06:17:05;100847.66;;;1.31;64.26
58775;BME280;44545;47.480;19.024;2023-02-03T06:20:08;100854.59;;;1.23;64.16
58775;BME280;44545;47.480;19.024;2023-02-03T06:23:11;100849.94;;;1.19;64.00
58775;BME280;44545;47.480;19.024;2023-02-03T06:26:13;100855.50;;;1.24;64.48
58775;BME280;44545;47.480;19.024;2023-02-03T06:29:15;100869.91;;;1.22;65.28
58775;BME280;44545;47.480;19.024;2023-02-03T06:32:18;100862.78;;;1.28;65.99
58775;BME280;44545;47.480;19.024;2023-02-03T06:35:20;100863.06;;;1.31;64.18
58775;BME280;44545;47.480;19.024;2023-02-03T06:38:22;100865.81;;;1.33;63.66
58775;BME280;44545;47.480;19.024;2023-02-03T06:41:25;100870.34;;;1.35;63.32
58775;BME280;44545;47.480;19.024;2023-02-03T06:44:31;100875.47;;;1.35;62.32
58775;BME280;44545;47.480;19.024;2023-02-03T06:47:33;100877.56;;;1.39;61.44
58775;BME280;44545;47.480;19.024;2023-02-03T06:50:36;100876.97;;;1.42;61.40
58775;BME280;44545;47.480;19.024;2023-02-03T06:53:39;100883.50;;;1.47;62.51
58775;BME280;44545;47.480;19.024;2023-02-03T06:56:42;100871.97;;;1.61;60.16
58775;BME280;44545;47.480;19.024;2023-02-03T06:59:45;100877.87;;;1.60;60.95
58775;BME280;44545;47.480;19.024;2023-02-03T07:02:55;100880.59;;;1.61;59.82
58775;BME280;44545;47.480;19.024;2023-02-03T07:05:57;100878.59;;;1.76;60.68
58775;BME280;44545;47.480;19.024;2023-02-03T07:09:01;100878.72;;;1.95;61.48
58775;BME280;44545;47.480;19.024;2023-02-03T07:12:05;100873.72;;;1.97;64.84
58775;BME280;44545;47.480;19.024;2023-02-03T07:15:08;100877.63;;;2.02;66.17
58775;BME280;44545;47.480;19.024;2023-02-03T07:18:11;100877.22;;;1.88;67.35
58775;BME280;44545;47.480;19.024;2023-02-03T07:21:18;100878.03;;;1.70;68.79
58775;BME280;44545;47.480;19.024;2023-02-03T07:24:21;100880.00;;;1.55;69.45
58775;BME280;44545;47.480;19.024;2023-02-03T07:27:23;100866.25;;;1.55;70.77
58775;BME280;44545;47.480;19.024;2023-02-03T07:30:25;100870.91;;;1.59;70.92
58775;BME280;44545;47.480;19.024;2023-02-03T07:33:29;100877.69;;;1.67;70.73
58775;BME280;44545;47.480;19.024;2023-02-03T07:36:32;100880.25;;;1.67;70.16
58775;BME280;44545;47.480;19.024;2023-02-03T07:39:34;100888.78;;;1.57;70.74
58775;BME280;44545;47.480;19.024;2023-02-03T07:42:47;100891.03;;;1.63;70.02
58775;BME280;44545;47.480;19.024;2023-02-03T07:45:49;100890.53;;;1.84;61.39
58775;BME280;44545;47.480;19.024;2023-02-03T07:48:52;100892.34;;;1.85;60.25
58775;BME280;44545;47.480;19.024;2023-02-03T07:51:54;100890.81;;;1.96;60.31
58775;BME280;44545;47.480;19.024;2023-02-03T07:54:57;100899.59;;;1.98;60.11
58775;BME280;44545;47.480;19.024;2023-02-03T07:57:59;100907.59;;;2.01;60.70
58775;BME280;44545;47.480;19.024;2023-02-03T08:01:15;100898.47;;;2.13;61.24
58775;BME280;44545;47.480;19.024;2023-02-03T08:04:17;100914.72;;;1.95;66.55
58775;BME280;44545;47.480;19.024;2023-02-03T08:07:20;100917.19;;;1.67;70.09
58775;BME280;44545;47.480;19.024;2023-02-03T08:10:22;100912.31;;;1.62;71.46
58775;BME280;44545;47.480;19.024;2023-02-03T08:13:25;100902.53;;;1.58;71.46
58775;BME280;44545;47.480;19.024;2023-02-03T08:16:27;100895.56;;;1.48;71.75
58775;BME280;44545;47.480;19.024;2023-02-03T08:19:30;100911.16;;;1.49;71.84
58775;BME280;44545;47.480;19.024;2023-02-03T08:22:32;100909.16;;;1.56;72.04
58775;BME280;44545;47.480;19.024;2023-02-03T08:25:34;100902.06;;;1.53;73.75
58775;BME280;44545;47.480;19.024;2023-02-03T08:28:37;100903.12;;;1.55;74.33
58775;BME280;44545;47.480;19.024;2023-02-03T08:31:41;100900.25;;;1.43;74.96
58775;BME280;44545;47.480;19.024;2023-02-03T08:34:44;100902.06;;;1.53;75.72
58775;BME280;44545;47.480;19.024;2023-02-03T08:37:46;100904.94;;;1.56;76.83
58775;BME280;44545;47.480;19.024;2023-02-03T08:40:49;100904.63;;;1.53;77.38
58775;BME280;44545;47.480;19.024;2023-02-03T08:43:51;100911.00;;;1.48;78.39
58775;BME280;44545;47.480;19.024;2023-02-03T08:46:55;100903.75;;;1.52;78.79
58775;BME280;44545;47.480;19.024;2023-02-03T08:49:57;100914.91;;;1.62;79.73
58775;BME280;44545;47.480;19.024;2023-02-03T08:52:59;100915.37;;;1.58;79.59
58775;BME280;44545;47.480;19.024;2023-02-03T08:56:10;100921.72;;;1.61;79.61
58775;BME280;44545;47.480;19.024;2023-02-03T08:59:13;100920.50;;;1.66;80.04
58775;BME280;44545;47.480;19.024;2023-02-03T09:02:18;100923.22;;;1.68;80.67
58775;BME280;44545;47.480;19.024;2023-02-03T09:05:21;100922.31;;;1.67;80.59
58775;BME280;44545;47.480;19.024;2023-02-03T09:08:23;100928.97;;;1.65;81.86
58775;BME280;44545;47.480;19.024;2023-02-03T09:11:25;100917.19;;;1.59;83.71
58775;BME280;44545;47.480;19.024;2023-02-03T09:14:28;100920.66;;;1.59;86.29
58775;BME280;44545;47.480;19.024;2023-02-03T09:17:31;100919.31;;;1.45;89.69
58775;BME280;44545;47.480;19.024;2023-02-03T09:20:33;100927.47;;;1.33;92.33
58775;BME280;44545;47.480;19.024;2023-02-03T09:23:36;100928.81;;;1.20;96.29
58775;BME280;44545;47.480;19.024;2023-02-03T09:26:38;100919.31;;;1.19;97.93
58775;BME280;44545;47.480;19.024;2023-02-03T09:29:40;100923.50;;;1.01;100.00
58775;BME280;44545;47.480;19.024;2023-02-03T09:32:43;100926.62;;;0.90;100.00
58775;BME280;44545;47.480;19.024;2023-02-03T09:35:52;100911.94;;;0.72;100.00
58775;BME280;44545;47.480;19.024;2023-02-03T09:38:56;100908.56;;;0.55;100.00
58775;BME280;44545;47.480;19.024;2023-02-03T09:42:05;100907.78;;;0.48;100.00
58775;BME280;44545;47.480;19.024;2023-02-03T09:45:25;100898.75;;;0.51;100.00
58775;BME280;44545;47.480;19.024;2023-02-03T09:48:34;100897.69;;;0.58;100.00
58775;BME280;44545;47.480;19.024;2023-02-03T09:51:39;100887.00;;;0.62;100.00
58775;BME280;44545;47.480;19.024;2023-02-03T09:58:08;100871.97;;;0.82;100.00
58775;BME280;44545;47.480;19.024;2023-02-03T10:01:16;100862.47;;;0.99;100.00
58775;BME280;44545;47.480;19.024;2023-02-03T10:07:55;100846.75;;;1.13;100.00
58775;BME280;44545;47.480;19.024;2023-02-03T10:17:38;100809.87;;;1.30;100.00
58775;BME280;44545;47.480;19.024;2023-02-03T10:20:48;100804.28;;;1.34;100.00
58775;BME280;44545;47.480;19.024;2023-02-03T10:23:51;100803.53;;;1.26;100.00
58775;BME280;44545;47.480;19.024;2023-02-03T10:26:56;100792.97;;;1.32;100.00
58775;BME280;44545;47.480;19.024;2023-02-03T10:33:19;100771.50;;;1.23;100.00
58775;BME280;44545;47.480;19.024;2023-02-03T10:36:22;100773.94;;;1.13;100.00
58775;BME280;44545;47.480;19.024;2023-02-03T10:39:42;100768.66;;;1.02;100.00
58775;BME280;44545;47.480;19.024;2023-02-03T10:42:46;100763.09;;;1.06;100.00
58775;BME280;44545;47.480;19.024;2023-02-03T10:46:08;100755.69;;;1.10;100.00
58775;BME280;44545;47.480;19.024;2023-02-03T10:49:11;100747.97;;;1.01;100.00
58775;BME280;44545;47.480;19.024;2023-02-03T10:52:25;100745.09;;;0.98;100.00
58775;BME280;44545;47.480;19.024;2023-02-03T10:55:30;100745.56;;;1.02;100.00
58775;BME280;44545;47.480;19.024;2023-02-03T10:58:33;100733.94;;;0.97;100.00
58775;BME280;44545;47.480;19.024;2023-02-03T11:01:41;100724.72;;;0.99;100.00
58775;BME280;44545;47.480;19.024;2023-02-03T11:04:44;100708.84;;;1.03;100.00
58775;BME280;44545;47.480;19.024;2023-02-03T11:07:47;100708.41;;;0.99;100.00
58775;BME280;44545;47.480;19.024;2023-02-03T11:11:01;100703.88;;;1.05;100.00
58775;BME280;44545;47.480;19.024;2023-02-03T11:17:08;100675.16;;;1.09;100.00
58775;BME280;44545;47.480;19.024;2023-02-03T11:20:16;100669.59;;;1.04;100.00
58775;BME280;44545;47.480;19.024;2023-02-03T11:23:19;100683.16;;;1.03;100.00
58775;BME280;44545;47.480;19.024;2023-02-03T11:26:28;100671.25;;;0.95;100.00
58775;BME280;44545;47.480;19.024;2023-02-03T11:29:39;100650.09;;;0.98;100.00
58775;BME280;44545;47.480;19.024;2023-02-03T11:32:45;100647.88;;;0.75;100.00
58775;BME280;44545;47.480;19.024;2023-02-03T11:35:56;100661.91;;;0.78;100.00
58775;BME280;44545;47.480;19.024;2023-02-03T11:42:23;100642.31;;;0.61;100.00
58775;BME280;44545;47.480;19.024;2023-02-03T11:45:38;100636.13;;;0.59;100.00
58775;BME280;44545;47.480;19.024;2023-02-03T11:49:03;100625.28;;;0.53;100.00
58775;BME280;44545;47.480;19.024;2023-02-03T12:29:13;100514.16;;;0.72;100.00
58775;BME280;44545;47.480;19.024;2023-02-03T12:32:36;100505.84;;;0.74;100.00
58775;BME280;44545;47.480;19.024;2023-02-03T12:35:49;100487.09;;;0.75;100.00
58775;BME280;44545;47.480;19.024;2023-02-03T12:38:59;100467.78;;;0.79;100.00
58775;BME280;44545;47.480;19.024;2023-02-03T12:42:18;100452.06;;;0.76;100.00
58775;BME280;44545;47.480;19.024;2023-02-03T12:45:27;100451.59;;;0.80;100.00
58775;BME280;44545;47.480;19.024;2023-02-03T12:48:46;100441.50;;;0.81;100.00
58775;BME280;44545;47.480;19.024;2023-02-03T12:52:22;100444.50;;;0.77;100.00
58775;BME280;44545;47.480;19.024;2023-02-03T12:55:46;100431.25;;;0.73;100.00
58775;BME280;44545;47.480;19.024;2023-02-03T12:59:02;100411.06;;;0.67;100.00
58775;BME280;44545;47.480;19.024;2023-02-03T13:02:36;100411.84;;;0.57;100.00
58775;BME280;44545;47.480;19.024;2023-02-03T13:12:44;100381.44;;;0.71;100.00
58775;BME280;44545;47.480;19.024;2023-02-03T13:15:49;100372.13;;;0.62;100.00
58775;BME280;44545;47.480;19.024;2023-02-03T13:18:58;100366.63;;;0.77;100.00
58775;BME280;44545;47.480;19.024;2023-02-03T13:22:10;100367.78;;;0.80;100.00
58775;BME280;44545;47.480;19.024;2023-02-03T13:39:04;100318.91;;;0.79;100.00
58775;BME280;44545;47.480;19.024;2023-02-03T13:45:30;100307.09;;;0.81;100.00
58775;BME280;44545;47.480;19.024;2023-02-03T13:48:34;100301.00;;;0.70;100.00
58775;BME280;44545;47.480;19.024;2023-02-03T13:51:42;100302.25;;;0.84;100.00
58775;BME280;44545;47.480;19.024;2023-02-03T13:54:47;100299.13;;;0.78;100.00
58775;BME280;44545;47.480;19.024;2023-02-03T13:57:50;100283.59;;;0.76;100.00
58775;BME280;44545;47.480;19.024;2023-02-03T14:03:56;100281.44;;;0.81;100.00
58775;BME280;44545;47.480;19.024;2023-02-03T14:07:01;100266.53;;;0.77;100.00
58775;BME280;44545;47.480;19.024;2023-02-03T14:10:12;100264.84;;;0.77;100.00
58775;BME280;44545;47.480;19.024;2023-02-03T14:13:19;100268.75;;;0.82;100.00
58775;BME280;44545;47.480;19.024;2023-02-03T14:16:24;100252.50;;;0.92;100.00
58775;BME280;44545;47.480;19.024;2023-02-03T14:22:29;100248.13;;;1.10;100.00
58775;BME280;44545;47.480;19.024;2023-02-03T14:25:44;100248.03;;;1.19;100.00
58775;BME280;44545;47.480;19.024;2023-02-03T14:28:49;100233.37;;;1.18;100.00
58775;BME280;44545;47.480;19.024;2023-02-03T14:31:58;100233.66;;;1.21;100.00
58775;BME280;44545;47.480;19.024;2023-02-03T14:35:16;100233.25;;;1.16;100.00
58775;BME280;44545;47.480;19.024;2023-02-03T14:38:20;100234.53;;;1.21;100.00
58775;BME280;44545;47.480;19.024;2023-02-03T14:48:50;100213.28;;;1.33;100.00
58775;BME280;44545;47.480;19.024;2023-02-03T14:52:10;100207.81;;;1.48;100.00
58775;BME280;44545;47.480;19.024;2023-02-03T14:55:34;100195.53;;;1.55;100.00
58775;BME280;44545;47.480;19.024;2023-02-03T14:58:48;100203.47;;;1.47;100.00
58775;BME280;44545;47.480;19.024;2023-02-03T15:11:43;100184.84;;;1.50;100.00
58775;BME280;44545;47.480;19.024;2023-02-03T15:14:46;100176.50;;;1.63;100.00
58775;BME280;44545;47.480;19.024;2023-02-03T15:17:49;100173.81;;;1.71;100.00
58775;BME280;44545;47.480;19.024;2023-02-03T15:20:54;100160.56;;;1.57;100.00
58775;BME280;44545;47.480;19.024;2023-02-03T15:23:56;100159.91;;;1.59;100.00
58775;BME280;44545;47.480;19.024;2023-02-03T15:26:59;100159.41;;;1.53;100.00
58775;BME280;44545;47.480;19.024;2023-02-03T15:30:16;100148.50;;;1.66;100.00
58775;BME280;44545;47.480;19.024;2023-02-03T15:33:19;100153.00;;;1.68;100.00
58775;BME280;44545;47.480;19.024;2023-02-03T15:36:36;100135.66;;;1.76;100.00
58775;BME280;44545;47.480;19.024;2023-02-03T15:43:08;100135.66;;;1.86;100.00
58775;BME280;44545;47.480;19.024;2023-02-03T15:46:47;100135.16;;;1.90;100.00
58775;BME280;44545;47.480;19.024;2023-02-03T15:50:05;100123.84;;;1.88;100.00
58775;BME280;44545;47.480;19.024;2023-02-03T15:53:15;100131.56;;;1.88;100.00
58775;BME280;44545;47.480;19.024;2023-02-03T15:56:41;100124.87;;;1.90;100.00
58775;BME280;44545;47.480;19.024;2023-02-03T15:59:53;100126.91;;;1.84;100.00
58775;BME280;44545;47.480;19.024;2023-02-03T16:02:58;100115.88;;;1.85;100.00
